createdAt,value
2019-01-04T00:02:22.642Z,23.27
2019-01-04T00:04:49.910Z,20.13
2019-01-04T00:07:17.155Z,21.60
2019-01-04T00:09:44.392Z,19.33
2019-01-04T00:12:11.671Z,20.90
2019-01-04T00:14:38.936Z,22.83
2019-01-04T00:17:06.163Z,19.30
2019-01-04T00:19:33.345Z,21.30
2019-01-04T00:22:00.582Z,19.87
2019-01-04T00:24:27.876Z,20.33
2019-01-04T00:26:55.120Z,24.60
2019-01-04T00:29:22.386Z,22.20
2019-01-04T00:31:49.543Z,25.27
2019-01-04T00:34:16.788Z,22.37
2019-01-04T00:36:44.076Z,20.80
2019-01-04T00:39:11.219Z,21.57
2019-01-04T00:41:38.503Z,19.43
2019-01-04T00:44:05.752Z,19.43
2019-01-04T00:46:32.995Z,19.53
2019-01-04T00:49:00.245Z,17.57
2019-01-04T00:51:27.467Z,18.03
2019-01-04T00:53:54.733Z,20.30
2019-01-04T00:57:09.847Z,22.27
2019-01-04T01:00:23.181Z,19.03
2019-01-04T01:03:35.151Z,19.13
2019-01-04T01:06:47.256Z,20.70
2019-01-04T01:09:57.744Z,17.73
2019-01-04T01:13:05.399Z,19.83
2019-01-04T01:16:23.669Z,20.10
2019-01-04T01:19:24.909Z,23.33
2019-01-04T01:22:49.300Z,19.20
2019-01-04T01:26:01.190Z,22.40
2019-01-04T01:29:12.958Z,24.47
2019-01-04T01:31:55.363Z,22.17
2019-01-04T01:34:54.628Z,22.90
2019-01-04T01:37:58.360Z,17.67
2019-01-04T01:40:52.954Z,21.90
2019-01-04T01:44:16.243Z,22.73
2019-01-04T01:46:48.714Z,20.83
2019-01-04T01:50:07.008Z,20.73
2019-01-04T01:52:38.098Z,21.50
2019-01-04T01:55:05.240Z,23.10
2019-01-04T01:57:32.392Z,22.17
2019-01-04T01:59:59.628Z,18.47
2019-01-04T02:02:26.894Z,22.90
2019-01-04T02:04:54.169Z,23.70
2019-01-04T02:07:21.430Z,22.40
2019-01-04T02:09:48.720Z,24.60
2019-01-04T02:12:15.917Z,18.73
2019-01-04T02:14:43.173Z,20.87
2019-01-04T02:17:10.325Z,26.07
2019-01-04T02:19:37.497Z,21.93
2019-01-04T02:22:04.843Z,19.27
2019-01-04T02:24:32.094Z,27.30
2019-01-04T02:26:59.371Z,20.27
2019-01-04T02:29:26.611Z,22.87
2019-01-04T02:31:53.894Z,28.53
2019-01-04T02:34:21.119Z,19.57
2019-01-04T02:36:48.375Z,21.13
2019-01-04T02:39:15.694Z,21.70
2019-01-04T02:41:43.015Z,24.10
2019-01-04T02:44:10.246Z,22.37
2019-01-04T02:46:37.532Z,25.43
2019-01-04T02:49:04.871Z,24.70
2019-01-04T02:51:32.140Z,27.37
2019-01-04T02:53:59.398Z,25.40
2019-01-04T02:56:26.628Z,26.43
2019-01-04T02:58:53.894Z,22.13
2019-01-04T03:01:21.141Z,20.67
2019-01-04T03:03:48.382Z,21.60
2019-01-04T03:06:15.617Z,24.80
2019-01-04T03:08:42.898Z,18.17
2019-01-04T03:11:10.153Z,19.77
2019-01-04T03:13:37.508Z,22.13
2019-01-04T03:16:04.653Z,21.50
2019-01-04T03:18:31.908Z,24.37
2019-01-04T03:20:59.168Z,21.50
2019-01-04T03:23:26.527Z,22.73
2019-01-04T03:25:53.743Z,24.40
2019-01-04T03:28:21.006Z,20.10
2019-01-04T03:30:48.321Z,19.77
2019-01-04T03:33:15.559Z,20.40
2019-01-04T03:35:42.833Z,24.90
2019-01-04T03:38:10.045Z,22.23
2019-01-04T03:40:37.337Z,20.97
2019-01-04T03:43:04.610Z,22.90
2019-01-04T03:45:31.857Z,25.43
2019-01-04T03:47:59.131Z,21.17
2019-01-04T03:50:26.375Z,21.97
2019-01-04T03:52:53.563Z,23.20
2019-01-04T03:55:20.795Z,22.10
2019-01-04T03:57:48.072Z,22.77
2019-01-04T04:00:15.299Z,20.50
2019-01-04T04:02:42.423Z,22.40
2019-01-04T04:05:09.689Z,21.10
2019-01-04T04:07:36.841Z,24.57
2019-01-04T04:10:04.151Z,21.93
2019-01-04T04:12:31.560Z,26.63
2019-01-04T04:14:58.841Z,25.47
2019-01-04T04:17:26.204Z,24.17
2019-01-04T04:19:53.436Z,21.87
2019-01-04T04:22:20.593Z,24.50
2019-01-04T04:24:47.758Z,26.37
2019-01-04T04:27:15.092Z,22.70
2019-01-04T04:29:42.359Z,23.60
2019-01-04T04:32:09.595Z,29.23
2019-01-04T04:34:36.854Z,22.27
2019-01-04T04:37:04.202Z,23.37
2019-01-04T04:39:31.431Z,24.97
2019-01-04T04:41:58.677Z,19.97
2019-01-04T04:44:25.960Z,21.37
2019-01-04T04:46:53.125Z,23.27
2019-01-04T04:49:20.371Z,21.03
2019-01-04T04:51:47.665Z,21.93
2019-01-04T04:54:14.927Z,20.93
2019-01-04T04:56:42.197Z,19.70
2019-01-04T04:59:09.529Z,19.73
2019-01-04T05:01:36.871Z,23.57
2019-01-04T05:04:04.101Z,20.70
2019-01-04T05:06:31.265Z,23.37
2019-01-04T05:08:58.399Z,20.73
2019-01-04T05:11:25.657Z,20.63
2019-01-04T05:13:52.887Z,20.37
2019-01-04T05:16:20.050Z,20.07
2019-01-04T05:18:47.285Z,18.73
2019-01-04T05:21:14.447Z,23.47
2019-01-04T05:23:41.588Z,23.30
2019-01-04T05:26:08.861Z,23.20
2019-01-04T05:28:36.118Z,25.70
2019-01-04T05:31:03.265Z,21.50
2019-01-04T05:33:30.604Z,24.20
2019-01-04T05:35:57.732Z,23.03
2019-01-04T05:38:25.006Z,23.83
2019-01-04T05:40:52.279Z,20.93
2019-01-04T05:43:19.502Z,22.33
2019-01-04T05:45:46.738Z,22.70
2019-01-04T05:48:13.995Z,20.27
2019-01-04T05:50:41.150Z,22.33
2019-01-04T05:53:08.297Z,21.70
2019-01-04T05:55:35.549Z,22.83
2019-01-04T05:58:02.783Z,26.43
2019-01-04T06:00:30.037Z,24.90
2019-01-04T06:02:57.291Z,21.30
2019-01-04T06:05:24.544Z,23.73
2019-01-04T06:07:51.769Z,25.80
2019-01-04T06:10:19.035Z,22.80
2019-01-04T06:12:46.292Z,23.87
2019-01-04T06:15:13.433Z,25.87
2019-01-04T06:17:40.693Z,19.23
2019-01-04T06:20:07.931Z,24.13
2019-01-04T06:22:35.193Z,24.10
2019-01-04T06:25:02.460Z,23.33
2019-01-04T06:27:29.717Z,21.30
2019-01-04T06:29:57.017Z,22.87
2019-01-04T06:32:24.187Z,25.77
2019-01-04T06:34:51.453Z,24.60
2019-01-04T06:37:18.686Z,22.23
2019-01-04T06:39:45.945Z,22.13
2019-01-04T06:42:13.104Z,25.90
2019-01-04T06:44:40.333Z,26.80
2019-01-04T06:47:12.020Z,24.23
2019-01-04T06:49:39.299Z,21.80
2019-01-04T06:52:06.554Z,23.60
2019-01-04T06:55:33.411Z,22.53
2019-01-04T06:58:00.662Z,21.33
2019-01-04T07:00:28.050Z,24.00
2019-01-04T07:02:55.323Z,25.60
2019-01-04T07:05:22.459Z,22.63
2019-01-04T07:07:49.610Z,26.60
2019-01-04T07:10:16.944Z,23.03
2019-01-04T07:12:44.208Z,25.97
2019-01-04T07:15:11.536Z,23.13
2019-01-04T07:17:38.809Z,23.73
2019-01-04T07:20:06.046Z,24.30
2019-01-04T07:22:33.318Z,25.73
2019-01-04T07:25:00.449Z,24.43
2019-01-04T07:27:27.605Z,28.13
2019-01-04T07:29:54.898Z,21.53
2019-01-04T07:32:22.191Z,21.63
2019-01-04T07:34:49.455Z,25.43
2019-01-04T07:37:16.756Z,27.43
2019-01-04T07:39:43.889Z,23.87
2019-01-04T07:42:11.177Z,26.23
2019-01-04T07:44:38.471Z,25.93
2019-01-04T07:47:05.720Z,26.80
2019-01-04T07:49:32.990Z,29.97
2019-01-04T07:52:00.172Z,25.47
2019-01-04T07:54:27.421Z,23.23
2019-01-04T07:56:54.776Z,23.83
2019-01-04T07:59:22.059Z,24.30
2019-01-04T08:01:49.390Z,27.07
2019-01-04T08:04:16.528Z,22.50
2019-01-04T08:06:43.782Z,25.53
2019-01-04T08:09:11.144Z,24.83
2019-01-04T08:11:38.448Z,25.03
2019-01-04T08:14:05.712Z,29.27
2019-01-04T08:16:32.998Z,24.00
2019-01-04T08:19:00.258Z,24.50
2019-01-04T08:21:27.562Z,26.60
2019-01-04T08:23:54.843Z,26.37
2019-01-04T08:26:22.102Z,29.70
2019-01-04T08:28:49.346Z,26.30
2019-01-04T08:31:16.488Z,27.00
2019-01-04T08:33:43.803Z,22.20
2019-01-04T08:36:10.977Z,26.17
2019-01-04T08:38:38.242Z,27.00
2019-01-04T08:41:05.490Z,28.47
2019-01-04T08:43:32.752Z,26.00
2019-01-04T08:46:00.514Z,26.53
2019-01-04T08:48:27.697Z,30.90
2019-01-04T08:50:54.853Z,25.53
2019-01-04T08:53:54.715Z,28.80
2019-01-04T08:56:21.955Z,26.50
2019-01-04T08:58:49.246Z,28.57
2019-01-04T09:01:16.458Z,28.77
2019-01-04T09:03:43.736Z,29.23
2019-01-04T09:06:11.005Z,28.07
2019-01-04T09:08:38.264Z,31.73
2019-01-04T09:11:05.552Z,29.73
2019-01-04T09:13:32.799Z,26.87
2019-01-04T09:16:00.061Z,29.50
2019-01-04T09:18:27.333Z,29.37
2019-01-04T09:20:54.594Z,47.03
2019-01-04T09:23:22.116Z,37.67
2019-01-04T09:25:49.342Z,27.20
2019-01-04T09:28:18.153Z,28.10
2019-01-04T09:30:45.553Z,28.07
2019-01-04T09:33:12.814Z,28.43
2019-01-04T09:35:40.106Z,28.90
2019-01-04T09:38:07.367Z,35.60
2019-01-04T09:40:34.663Z,30.97
2019-01-04T09:43:01.916Z,31.00
2019-01-04T09:45:29.224Z,29.57
2019-01-04T09:47:56.488Z,36.03
2019-01-04T09:50:23.760Z,33.30
2019-01-04T09:52:51.120Z,38.37
2019-01-04T09:55:18.399Z,36.13
2019-01-04T09:57:45.629Z,37.17
2019-01-04T10:00:13.136Z,33.27
2019-01-04T10:02:40.412Z,37.20
2019-01-04T10:05:08.249Z,39.23
2019-01-04T10:07:35.511Z,38.67
2019-01-04T10:10:02.913Z,40.77
2019-01-04T10:12:30.085Z,43.50
2019-01-04T10:14:57.353Z,36.87
2019-01-04T10:17:24.635Z,36.60
2019-01-04T10:19:51.907Z,38.47
2019-01-04T10:22:19.173Z,32.77
2019-01-04T10:24:46.467Z,36.80
2019-01-04T10:27:13.733Z,35.27
2019-01-04T10:29:40.992Z,31.80
2019-01-04T10:32:08.257Z,33.37
2019-01-04T10:34:35.488Z,30.97
2019-01-04T10:37:02.759Z,28.90
2019-01-04T10:39:29.902Z,27.37
2019-01-04T10:41:57.170Z,28.67
2019-01-04T10:44:24.478Z,26.27
2019-01-04T10:46:51.740Z,24.80
2019-01-04T10:49:18.998Z,23.10
2019-01-04T10:51:46.242Z,21.20
2019-01-04T10:54:13.520Z,24.17
2019-01-04T10:56:40.633Z,21.73
2019-01-04T10:59:07.922Z,22.40
2019-01-04T11:01:35.176Z,24.13
2019-01-04T11:04:02.465Z,28.67
2019-01-04T11:06:29.710Z,21.33
2019-01-04T11:08:56.996Z,20.93
2019-01-04T11:11:24.236Z,20.67
2019-01-04T11:13:51.418Z,23.73
2019-01-04T11:16:18.576Z,22.07
2019-01-04T11:18:45.871Z,19.63
2019-01-04T11:21:15.581Z,18.00
2019-01-04T11:24:20.259Z,20.77
2019-01-04T11:27:17.009Z,20.07
2019-01-04T11:30:40.965Z,25.37
2019-01-04T11:33:40.270Z,22.63
2019-01-04T11:37:05.145Z,14.27
2019-01-04T11:40:01.935Z,17.17
2019-01-04T11:43:03.825Z,16.77
2019-01-04T11:46:03.203Z,13.47
2019-01-04T11:49:13.906Z,17.03
2019-01-04T11:52:02.102Z,14.07
2019-01-04T11:54:29.917Z,16.83
2019-01-04T11:56:57.211Z,15.93
2019-01-04T11:59:24.901Z,17.20
2019-01-04T12:01:52.247Z,16.27
2019-01-04T12:04:19.489Z,15.90
2019-01-04T12:06:46.754Z,14.97
2019-01-04T12:09:13.994Z,14.60
2019-01-04T12:11:41.192Z,15.77
2019-01-04T12:14:08.578Z,14.27
2019-01-04T12:16:37.272Z,17.87
2019-01-04T12:19:04.581Z,14.83
2019-01-04T12:21:31.744Z,16.37
2019-01-04T12:23:59.022Z,14.33
2019-01-04T12:26:26.173Z,16.70
2019-01-04T12:28:53.438Z,16.10
2019-01-04T12:31:21.354Z,19.53
2019-01-04T12:33:48.681Z,13.90
2019-01-04T12:36:15.972Z,10.53
2019-01-04T12:38:43.177Z,12.37
2019-01-04T12:41:10.424Z,10.80
2019-01-04T12:43:37.715Z,9.17
2019-01-04T12:46:04.873Z,12.47
2019-01-04T12:48:32.278Z,10.33
2019-01-04T12:50:59.533Z,8.13
2019-01-04T12:53:26.859Z,9.57
2019-01-04T12:55:54.118Z,12.53
2019-01-04T12:58:22.015Z,10.57
2019-01-04T13:00:56.705Z,7.87
2019-01-04T13:03:38.094Z,9.47
2019-01-04T13:06:25.970Z,10.23
2019-01-04T13:09:08.837Z,11.87
2019-01-04T13:11:36.755Z,15.13
2019-01-04T13:14:04.101Z,17.33
2019-01-04T13:16:31.378Z,15.00
2019-01-04T13:18:58.670Z,24.67
2019-01-04T13:21:25.938Z,17.23
2019-01-04T13:23:53.230Z,17.43
2019-01-04T13:26:20.490Z,17.97
2019-01-04T13:28:47.787Z,21.77
2019-01-04T13:31:15.062Z,21.20
2019-01-04T13:33:42.359Z,30.37
2019-01-04T13:36:09.687Z,21.80
2019-01-04T13:38:36.944Z,30.50
2019-01-04T13:41:04.220Z,19.87
2019-01-04T13:43:31.494Z,20.20
2019-01-04T13:45:58.752Z,23.00
2019-01-04T13:48:26.036Z,24.50
2019-01-04T13:50:53.273Z,23.10
2019-01-04T13:53:20.505Z,27.03
2019-01-04T13:55:47.672Z,20.00
2019-01-04T13:58:14.976Z,22.93
2019-01-04T14:00:42.304Z,38.73
2019-01-04T14:03:09.582Z,24.23
2019-01-04T14:05:36.831Z,24.80
2019-01-04T14:08:04.061Z,23.77
2019-01-04T14:10:31.247Z,22.53
2019-01-04T14:12:58.513Z,27.80
2019-01-04T14:15:25.791Z,25.50
2019-01-04T14:17:53.085Z,27.03
2019-01-04T14:20:20.475Z,24.53
2019-01-04T14:22:47.741Z,23.57
2019-01-04T14:25:14.985Z,22.30
2019-01-04T14:27:42.239Z,22.43
2019-01-04T14:30:10.902Z,25.23
2019-01-04T14:32:38.193Z,22.60
2019-01-04T14:35:05.682Z,25.53
2019-01-04T14:37:32.908Z,23.13
2019-01-04T14:40:00.192Z,24.23
2019-01-04T14:42:27.471Z,25.93
2019-01-04T14:44:54.723Z,25.07
2019-01-04T14:47:21.989Z,21.83
2019-01-04T14:49:49.277Z,23.47
2019-01-04T14:52:16.577Z,24.53
2019-01-04T14:54:43.876Z,27.10
2019-01-04T14:57:11.130Z,23.70
2019-01-04T14:59:38.346Z,22.00
2019-01-04T15:02:05.698Z,25.03
2019-01-04T15:04:32.862Z,23.97
2019-01-04T15:07:00.142Z,25.47
2019-01-04T15:09:27.370Z,25.00
2019-01-04T15:11:54.634Z,22.07
2019-01-04T15:14:21.891Z,22.23
2019-01-04T15:16:49.177Z,20.47
2019-01-04T15:19:16.444Z,24.97
2019-01-04T15:21:43.707Z,19.77
2019-01-04T15:24:11.066Z,18.37
2019-01-04T15:26:38.283Z,18.97
2019-01-04T15:29:05.447Z,21.90
2019-01-04T15:31:32.633Z,19.37
2019-01-04T15:33:59.790Z,19.80
2019-01-04T15:36:27.168Z,19.90
2019-01-04T15:38:54.406Z,18.37
2019-01-04T15:41:21.705Z,16.80
2019-01-04T15:43:48.961Z,17.83
2019-01-04T15:46:16.843Z,16.17
2019-01-04T15:48:44.232Z,17.60
2019-01-04T15:51:11.545Z,16.37
2019-01-04T15:53:38.813Z,18.57
2019-01-04T15:56:06.058Z,15.27
2019-01-04T15:58:33.335Z,17.10
2019-01-04T16:01:00.609Z,14.37
2019-01-04T16:03:27.919Z,13.37
2019-01-04T16:05:55.182Z,24.30
2019-01-04T16:08:22.438Z,20.90
2019-01-04T16:10:49.716Z,14.53
2019-01-04T16:13:17.076Z,13.80
2019-01-04T16:15:44.388Z,13.23
2019-01-04T16:18:11.710Z,51.50
2019-01-04T16:20:39.000Z,19.83
2019-01-04T16:23:06.270Z,14.23
2019-01-04T16:25:33.536Z,14.63
2019-01-04T16:28:00.813Z,15.10
2019-01-04T16:30:28.061Z,15.07
2019-01-04T16:32:55.338Z,13.90
2019-01-04T16:35:22.705Z,13.33
2019-01-04T16:37:49.963Z,12.70
2019-01-04T16:40:17.102Z,10.50
2019-01-04T16:42:44.518Z,11.90
2019-01-04T16:45:12.699Z,13.73
2019-01-04T16:47:40.097Z,13.33
2019-01-04T16:50:07.751Z,13.17
2019-01-04T16:52:34.997Z,12.67
2019-01-04T16:55:02.354Z,11.63
2019-01-04T16:57:29.639Z,12.47
2019-01-04T16:59:56.877Z,14.30
2019-01-04T17:02:24.201Z,12.67
2019-01-04T17:04:51.471Z,12.47
2019-01-04T17:07:18.717Z,11.63
2019-01-04T17:09:45.897Z,10.37
2019-01-04T17:12:13.208Z,12.60
2019-01-04T17:14:40.483Z,11.83
2019-01-04T17:17:07.798Z,11.73
2019-01-04T17:19:40.687Z,9.83
2019-01-04T17:22:04.786Z,11.03
2019-01-04T17:24:32.052Z,11.23
2019-01-04T17:26:59.205Z,9.03
2019-01-04T17:29:26.360Z,9.10
2019-01-04T17:31:53.654Z,12.47
2019-01-04T17:34:20.898Z,11.70
2019-01-04T17:36:48.157Z,10.33
2019-01-04T17:39:15.405Z,8.83
2019-01-04T17:41:42.662Z,10.17
2019-01-04T17:44:09.939Z,12.03
2019-01-04T17:46:37.247Z,10.07
2019-01-04T17:49:04.528Z,11.63
2019-01-04T17:51:31.798Z,11.77
2019-01-04T17:53:59.025Z,12.30
2019-01-04T17:56:26.270Z,12.40
2019-01-04T17:58:53.549Z,13.20
2019-01-04T18:01:20.885Z,11.73
2019-01-04T18:03:48.149Z,11.93
2019-01-04T18:06:15.651Z,11.57
2019-01-04T18:08:43.013Z,9.87
2019-01-04T18:11:10.163Z,13.93
2019-01-04T18:13:37.431Z,19.40
2019-01-04T18:16:04.699Z,11.37
2019-01-04T18:18:32.015Z,10.27
2019-01-04T18:20:59.343Z,13.63
2019-01-04T18:23:26.576Z,10.20
2019-01-04T18:25:53.818Z,10.07
2019-01-04T18:28:21.064Z,10.20
2019-01-04T18:30:48.369Z,7.60
2019-01-04T18:33:15.542Z,11.73
2019-01-04T18:35:42.800Z,8.37
2019-01-04T18:38:10.059Z,8.87
2019-01-04T18:40:37.309Z,10.27
2019-01-04T18:43:04.574Z,10.37
2019-01-04T18:45:31.842Z,8.53
2019-01-04T18:47:59.107Z,9.17
2019-01-04T18:50:26.870Z,9.80
2019-01-04T18:52:54.138Z,12.83
2019-01-04T18:55:21.386Z,9.73
2019-01-04T18:57:48.680Z,9.93
2019-01-04T19:00:15.923Z,7.30
2019-01-04T19:02:43.204Z,9.83
2019-01-04T19:05:10.491Z,7.50
2019-01-04T19:07:37.743Z,10.07
2019-01-04T19:10:06.643Z,7.53
2019-01-04T19:12:33.879Z,7.90
2019-01-04T19:15:01.139Z,9.07
2019-01-04T19:17:28.430Z,5.70
2019-01-04T19:19:55.704Z,8.23
2019-01-04T19:22:23.094Z,21.53
2019-01-04T19:24:50.443Z,6.77
2019-01-04T19:27:17.690Z,9.13
2019-01-04T19:29:44.966Z,13.13
2019-01-04T19:32:12.243Z,8.13
2019-01-04T19:34:39.510Z,7.07
2019-01-04T19:37:06.754Z,7.50
2019-01-04T19:39:34.047Z,7.83
2019-01-04T19:42:01.282Z,12.60
2019-01-04T19:44:28.569Z,18.37
2019-01-04T19:46:55.987Z,9.30
2019-01-04T19:49:23.330Z,9.17
2019-01-04T19:51:50.518Z,8.47
2019-01-04T19:54:17.766Z,9.60
2019-01-04T19:56:45.037Z,10.97
2019-01-04T19:59:12.298Z,8.37
2019-01-04T20:01:39.607Z,14.87
2019-01-04T20:04:06.753Z,10.63
2019-01-04T20:07:38.657Z,10.27
2019-01-04T20:11:18.170Z,10.87
2019-01-04T20:14:48.458Z,8.67
2019-01-04T20:17:34.330Z,10.63
2019-01-04T20:20:27.140Z,11.03
2019-01-04T20:23:20.073Z,11.30
2019-01-04T20:26:09.537Z,7.10
2019-01-04T20:28:53.798Z,8.73
2019-01-04T20:31:39.021Z,10.00
2019-01-04T20:34:24.090Z,8.70
2019-01-04T20:37:09.756Z,10.37
2019-01-04T20:39:56.551Z,10.57
2019-01-04T20:42:41.788Z,9.93
2019-01-04T20:45:23.395Z,9.97
2019-01-04T20:48:08.699Z,8.73
2019-01-04T20:50:53.671Z,10.17
2019-01-04T20:53:48.389Z,10.67
2019-01-04T20:56:33.618Z,8.63
2019-01-04T20:59:20.413Z,12.23
2019-01-04T21:02:09.968Z,10.43
2019-01-04T21:05:11.717Z,11.70
2019-01-04T21:07:52.252Z,10.17
2019-01-04T21:10:39.026Z,13.47
2019-01-04T21:13:19.842Z,10.77
2019-01-04T21:16:04.861Z,12.63
2019-01-04T21:18:49.954Z,14.57
2019-01-04T21:21:42.302Z,11.23
2019-01-04T21:24:27.490Z,11.60
2019-01-04T21:27:16.847Z,10.77
2019-01-04T21:29:57.593Z,10.13
2019-01-04T21:32:59.584Z,10.43
2019-01-04T21:35:44.729Z,11.93
2019-01-04T21:38:29.923Z,12.53
2019-01-04T21:41:29.807Z,16.90
2019-01-04T21:44:19.348Z,12.73
2019-01-04T21:47:06.150Z,16.63
2019-01-04T21:49:51.469Z,12.27
2019-01-04T21:52:45.561Z,15.80
2019-01-04T21:55:41.240Z,16.83
2019-01-04T21:58:33.883Z,14.00
2019-01-04T22:01:38.727Z,15.73
2019-01-04T22:04:31.348Z,15.17
2019-01-04T22:07:16.724Z,15.13
2019-01-04T22:10:01.866Z,16.90
2019-01-04T22:12:51.627Z,19.90
2019-01-04T22:15:36.941Z,18.90
2019-01-04T22:18:21.905Z,15.17
2019-01-04T22:21:08.792Z,23.00
2019-01-04T22:24:01.566Z,21.80
2019-01-04T22:27:01.902Z,24.17
2019-01-04T22:29:48.670Z,21.63
2019-01-04T22:32:34.020Z,18.70
2019-01-04T22:35:19.062Z,20.03
2019-01-04T22:38:04.286Z,18.70
2019-01-04T22:40:49.226Z,19.57
2019-01-04T22:43:47.731Z,20.67
2019-01-04T22:46:29.024Z,24.50
2019-01-04T22:49:14.350Z,22.57
2019-01-04T22:51:59.305Z,24.47
2019-01-04T22:54:45.939Z,21.83
2019-01-04T22:57:32.735Z,25.90
2019-01-04T23:00:17.908Z,22.60
2019-01-04T23:03:02.937Z,23.63
2019-01-04T23:05:52.733Z,22.13
2019-01-04T23:08:45.905Z,24.30
2019-01-04T23:11:31.113Z,23.50
2019-01-04T23:14:17.634Z,20.93
2019-01-04T23:17:19.226Z,24.33
2019-01-04T23:20:04.479Z,23.93
2019-01-04T23:22:57.305Z,25.30
2019-01-04T23:25:42.533Z,25.63
2019-01-04T23:28:28.012Z,23.70
2019-01-04T23:31:17.780Z,23.60
2019-01-04T23:34:03.097Z,26.30
2019-01-04T23:36:47.378Z,23.33
2019-01-04T23:39:37.792Z,23.47
2019-01-04T23:42:36.389Z,24.53
2019-01-04T23:45:22.145Z,24.10
2019-01-04T23:48:17.501Z,21.67
2019-01-04T23:51:03.954Z,24.60
2019-01-04T23:53:50.763Z,24.10
2019-01-04T23:56:35.644Z,26.00
2019-01-04T23:59:21.092Z,21.80
